sensor_id;sensor_type;location;lat;lon;timestamp;temperature;humidity
69770;SHT30;57282;52.514;13.458;2022-09-04T00:01:48;18.27;46.97
69770;SHT30;57282;52.514;13.458;2022-09-04T00:04:29;18.20;46.96
69770;SHT30;57282;52.514;13.458;2022-09-04T00:07:11;18.20;47.06
69770;SHT30;57282;52.514;13.458;2022-09-04T00:09:53;18.17;47.35
69770;SHT30;57282;52.514;13.458;2022-09-04T00:12:39;18.09;47.33
69770;SHT30;57282;52.514;13.458;2022-09-04T00:15:12;18.09;47.62
69770;SHT30;57282;52.514;13.458;2022-09-04T00:17:53;18.03;47.87
69770;SHT30;57282;52.514;13.458;2022-09-04T00:20:32;18.00;47.98
69770;SHT30;57282;52.514;13.458;2022-09-04T00:23:11;17.99;47.90
69770;SHT30;57282;52.514;13.458;2022-09-04T00:25:48;18.00;47.98
69770;SHT30;57282;52.514;13.458;2022-09-04T00:28:30;17.97;48.05
69770;SHT30;57282;52.514;13.458;2022-09-04T00:31:05;17.94;48.28
69770;SHT30;57282;52.514;13.458;2022-09-04T00:33:44;17.89;48.29
69770;SHT30;57282;52.514;13.458;2022-09-04T00:36:21;17.85;48.67
69770;SHT30;57282;52.514;13.458;2022-09-04T00:38:54;17.82;48.72
69770;SHT30;57282;52.514;13.458;2022-09-04T00:41:28;17.83;48.86
69770;SHT30;57282;52.514;13.458;2022-09-04T00:44:24;17.82;48.71
69770;SHT30;57282;52.514;13.458;2022-09-04T00:47:32;17.78;48.80
69770;SHT30;57282;52.514;13.458;2022-09-04T00:50:24;17.75;48.93
69770;SHT30;57282;52.514;13.458;2022-09-04T00:53:21;17.76;48.98
69770;SHT30;57282;52.514;13.458;2022-09-04T00:56:06;17.68;49.01
69770;SHT30;57282;52.514;13.458;2022-09-04T00:58:57;17.66;49.08
69770;SHT30;57282;52.514;13.458;2022-09-04T01:01:36;17.62;49.25
69770;SHT30;57282;52.514;13.458;2022-09-04T01:04:19;17.58;49.27
69770;SHT30;57282;52.514;13.458;2022-09-04T01:07:07;17.58;49.32
69770;SHT30;57282;52.514;13.458;2022-09-04T01:10:11;17.55;49.44
69770;SHT30;57282;52.514;13.458;2022-09-04T01:12:55;17.53;49.43
69770;SHT30;57282;52.514;13.458;2022-09-04T01:15:30;17.49;49.44
69770;SHT30;57282;52.514;13.458;2022-09-04T01:18:08;17.48;49.72
69770;SHT30;57282;52.514;13.458;2022-09-04T01:20:52;17.48;49.96
69770;SHT30;57282;52.514;13.458;2022-09-04T01:23:47;17.49;49.88
69770;SHT30;57282;52.514;13.458;2022-09-04T01:26:32;17.48;49.73
69770;SHT30;57282;52.514;13.458;2022-09-04T01:29:20;17.46;49.77
69770;SHT30;57282;52.514;13.458;2022-09-04T01:32:00;17.48;49.87
69770;SHT30;57282;52.514;13.458;2022-09-04T01:34:38;17.46;49.70
69770;SHT30;57282;52.514;13.458;2022-09-04T01:37:23;17.41;49.70
69770;SHT30;57282;52.514;13.458;2022-09-04T01:40:14;17.41;49.57
69770;SHT30;57282;52.514;13.458;2022-09-04T01:42:55;17.35;50.01
69770;SHT30;57282;52.514;13.458;2022-09-04T01:45:33;17.36;50.06
69770;SHT30;57282;52.514;13.458;2022-09-04T01:48:15;17.34;50.07
69770;SHT30;57282;52.514;13.458;2022-09-04T01:50:49;17.32;49.80
69770;SHT30;57282;52.514;13.458;2022-09-04T01:53:24;17.35;49.93
69770;SHT30;57282;52.514;13.458;2022-09-04T01:55:58;17.34;49.56
69770;SHT30;57282;52.514;13.458;2022-09-04T01:58:40;17.25;50.05
69770;SHT30;57282;52.514;13.458;2022-09-04T02:01:22;17.14;50.08
69770;SHT30;57282;52.514;13.458;2022-09-04T02:04:05;17.21;50.48
69770;SHT30;57282;52.514;13.458;2022-09-04T02:06:54;17.20;50.33
69770;SHT30;57282;52.514;13.458;2022-09-04T02:09:33;17.15;50.42
69770;SHT30;57282;52.514;13.458;2022-09-04T02:12:10;17.18;49.94
69770;SHT30;57282;52.514;13.458;2022-09-04T02:14:58;17.15;50.02
69770;SHT30;57282;52.514;13.458;2022-09-04T02:17:40;17.07;50.46
69770;SHT30;57282;52.514;13.458;2022-09-04T02:20:22;17.11;50.24
69770;SHT30;57282;52.514;13.458;2022-09-04T02:22:58;17.08;50.43
69770;SHT30;57282;52.514;13.458;2022-09-04T02:25:41;17.10;50.28
69770;SHT30;57282;52.514;13.458;2022-09-04T02:28:22;17.10;50.37
69770;SHT30;57282;52.514;13.458;2022-09-04T02:31:04;17.03;50.06
69770;SHT30;57282;52.514;13.458;2022-09-04T02:33:42;17.00;50.26
69770;SHT30;57282;52.514;13.458;2022-09-04T02:36:18;17.04;50.59
69770;SHT30;57282;52.514;13.458;2022-09-04T02:38:54;17.06;50.79
69770;SHT30;57282;52.514;13.458;2022-09-04T02:41:33;17.03;50.85
69770;SHT30;57282;52.514;13.458;2022-09-04T02:44:24;17.01;50.37
69770;SHT30;57282;52.514;13.458;2022-09-04T02:47:08;17.01;50.92
69770;SHT30;57282;52.514;13.458;2022-09-04T02:49:50;16.95;50.52
69770;SHT30;57282;52.514;13.458;2022-09-04T02:52:41;16.93;50.56
69770;SHT30;57282;52.514;13.458;2022-09-04T02:55:25;16.93;50.43
69770;SHT30;57282;52.514;13.458;2022-09-04T02:58:15;16.93;50.52
69770;SHT30;57282;52.514;13.458;2022-09-04T03:00:56;16.88;50.72
69770;SHT30;57282;52.514;13.458;2022-09-04T03:03:38;16.85;50.54
69770;SHT30;57282;52.514;13.458;2022-09-04T03:06:12;16.84;50.44
69770;SHT30;57282;52.514;13.458;2022-09-04T03:08:52;16.84;50.67
69770;SHT30;57282;52.514;13.458;2022-09-04T03:11:30;16.84;50.34
69770;SHT30;57282;52.514;13.458;2022-09-04T03:14:08;16.77;50.46
69770;SHT30;57282;52.514;13.458;2022-09-04T03:16:44;16.73;50.92
69770;SHT30;57282;52.514;13.458;2022-09-04T03:19:22;16.76;50.14
69770;SHT30;57282;52.514;13.458;2022-09-04T03:22:00;16.67;51.08
69770;SHT30;57282;52.514;13.458;2022-09-04T03:24:38;16.66;51.01
69770;SHT30;57282;52.514;13.458;2022-09-04T03:27:12;16.67;50.69
69770;SHT30;57282;52.514;13.458;2022-09-04T03:29:49;16.59;51.00
69770;SHT30;57282;52.514;13.458;2022-09-04T03:32:26;16.62;51.19
69770;SHT30;57282;52.514;13.458;2022-09-04T03:35:03;16.57;50.91
69770;SHT30;57282;52.514;13.458;2022-09-04T03:37:47;16.55;51.17
69770;SHT30;57282;52.514;13.458;2022-09-04T03:40:35;16.53;51.40
69770;SHT30;57282;52.514;13.458;2022-09-04T03:43:19;16.52;51.20
69770;SHT30;57282;52.514;13.458;2022-09-04T03:46:22;16.45;50.93
69770;SHT30;57282;52.514;13.458;2022-09-04T03:49:11;16.45;51.10
69770;SHT30;57282;52.514;13.458;2022-09-04T03:51:58;16.46;51.08
69770;SHT30;57282;52.514;13.458;2022-09-04T03:54:50;16.43;51.16
69770;SHT30;57282;52.514;13.458;2022-09-04T03:57:40;16.39;51.20
69770;SHT30;57282;52.514;13.458;2022-09-04T04:00:21;16.45;51.11
69770;SHT30;57282;52.514;13.458;2022-09-04T04:03:18;16.41;51.32
69770;SHT30;57282;52.514;13.458;2022-09-04T04:06:05;16.38;51.56
69770;SHT30;57282;52.514;13.458;2022-09-04T04:09:21;16.33;51.47
69770;SHT30;57282;52.514;13.458;2022-09-04T04:12:26;16.28;51.42
69770;SHT30;57282;52.514;13.458;2022-09-04T04:15:35;16.29;51.62
69770;SHT30;57282;52.514;13.458;2022-09-04T04:18:40;16.30;51.68
69770;SHT30;57282;52.514;13.458;2022-09-04T04:21:30;16.28;51.80
69770;SHT30;57282;52.514;13.458;2022-09-04T04:27:22;16.26;51.78
69770;SHT30;57282;52.514;13.458;2022-09-04T04:30:05;16.25;52.14
69770;SHT30;57282;52.514;13.458;2022-09-04T04:32:47;16.22;51.71
69770;SHT30;57282;52.514;13.458;2022-09-04T04:35:30;16.24;51.64
69770;SHT30;57282;52.514;13.458;2022-09-04T04:38:22;16.16;51.71
69770;SHT30;57282;52.514;13.458;2022-09-04T04:41:10;16.12;51.88
69770;SHT30;57282;52.514;13.458;2022-09-04T04:44:02;16.14;52.09
69770;SHT30;57282;52.514;13.458;2022-09-04T04:46:49;16.12;52.06
69770;SHT30;57282;52.514;13.458;2022-09-04T04:49:51;16.11;52.13
69770;SHT30;57282;52.514;13.458;2022-09-04T04:52:39;16.00;52.41
69770;SHT30;57282;52.514;13.458;2022-09-04T04:55:19;15.98;52.26
69770;SHT30;57282;52.514;13.458;2022-09-04T04:58:23;15.95;52.63
69770;SHT30;57282;52.514;13.458;2022-09-04T05:01:08;15.95;52.76
69770;SHT30;57282;52.514;13.458;2022-09-04T05:03:58;15.93;52.41
69770;SHT30;57282;52.514;13.458;2022-09-04T05:06:37;15.91;52.53
69770;SHT30;57282;52.514;13.458;2022-09-04T05:09:18;15.94;52.51
69770;SHT30;57282;52.514;13.458;2022-09-04T05:12:00;15.93;52.52
69770;SHT30;57282;52.514;13.458;2022-09-04T05:14:45;15.94;52.49
69770;SHT30;57282;52.514;13.458;2022-09-04T05:17:26;15.90;52.52
69770;SHT30;57282;52.514;13.458;2022-09-04T05:20:22;15.84;52.61
69770;SHT30;57282;52.514;13.458;2022-09-04T05:23:01;15.88;52.45
69770;SHT30;57282;52.514;13.458;2022-09-04T05:25:45;15.91;52.66
69770;SHT30;57282;52.514;13.458;2022-09-04T05:28:27;15.88;52.66
69770;SHT30;57282;52.514;13.458;2022-09-04T05:31:11;15.86;52.87
69770;SHT30;57282;52.514;13.458;2022-09-04T05:33:50;15.90;52.57
69770;SHT30;57282;52.514;13.458;2022-09-04T05:36:29;15.88;52.74
69770;SHT30;57282;52.514;13.458;2022-09-04T05:39:08;15.77;52.66
69770;SHT30;57282;52.514;13.458;2022-09-04T05:41:57;15.83;53.33
69770;SHT30;57282;52.514;13.458;2022-09-04T05:44:48;15.80;53.01
69770;SHT30;57282;52.514;13.458;2022-09-04T05:47:34;15.80;53.32
69770;SHT30;57282;52.514;13.458;2022-09-04T05:50:25;15.84;52.97
69770;SHT30;57282;52.514;13.458;2022-09-04T05:53:26;15.81;53.16
69770;SHT30;57282;52.514;13.458;2022-09-04T05:56:29;15.77;53.14
69770;SHT30;57282;52.514;13.458;2022-09-04T06:02:46;15.76;53.54
69770;SHT30;57282;52.514;13.458;2022-09-04T06:05:28;15.80;53.51
69770;SHT30;57282;52.514;13.458;2022-09-04T06:08:16;15.83;53.61
69770;SHT30;57282;52.514;13.458;2022-09-04T06:11:02;15.84;53.40
69770;SHT30;57282;52.514;13.458;2022-09-04T06:13:54;15.83;53.43
69770;SHT30;57282;52.514;13.458;2022-09-04T06:16:43;15.84;53.46
69770;SHT30;57282;52.514;13.458;2022-09-04T06:19:34;15.87;53.67
69770;SHT30;57282;52.514;13.458;2022-09-04T06:22:34;15.95;53.95
69770;SHT30;57282;52.514;13.458;2022-09-04T06:28:42;16.09;53.52
69770;SHT30;57282;52.514;13.458;2022-09-04T06:31:52;16.14;53.35
69770;SHT30;57282;52.514;13.458;2022-09-04T06:34:50;16.12;53.44
69770;SHT30;57282;52.514;13.458;2022-09-04T06:37:36;16.14;53.55
69770;SHT30;57282;52.514;13.458;2022-09-04T06:40:24;16.14;53.65
69770;SHT30;57282;52.514;13.458;2022-09-04T06:43:07;16.16;53.91
69770;SHT30;57282;52.514;13.458;2022-09-04T06:45:51;16.14;54.11
69770;SHT30;57282;52.514;13.458;2022-09-04T06:48:42;16.21;53.98
69770;SHT30;57282;52.514;13.458;2022-09-04T06:51:28;16.25;54.22
69770;SHT30;57282;52.514;13.458;2022-09-04T06:54:20;16.26;54.22
69770;SHT30;57282;52.514;13.458;2022-09-04T06:57:18;16.32;54.53
69770;SHT30;57282;52.514;13.458;2022-09-04T07:00:07;16.39;54.45
69770;SHT30;57282;52.514;13.458;2022-09-04T07:02:48;16.42;54.52
69770;SHT30;57282;52.514;13.458;2022-09-04T07:05:30;16.51;54.86
69770;SHT30;57282;52.514;13.458;2022-09-04T07:08:15;16.53;54.71
69770;SHT30;57282;52.514;13.458;2022-09-04T07:11:06;16.62;54.91
69770;SHT30;57282;52.514;13.458;2022-09-04T07:14:04;16.69;55.04
69770;SHT30;57282;52.514;13.458;2022-09-04T07:16:58;16.74;54.70
69770;SHT30;57282;52.514;13.458;2022-09-04T07:19:53;16.81;54.83
69770;SHT30;57282;52.514;13.458;2022-09-04T07:22:44;16.83;54.87
69770;SHT30;57282;52.514;13.458;2022-09-04T07:25:21;16.87;54.71
69770;SHT30;57282;52.514;13.458;2022-09-04T07:28:05;16.91;54.96
69770;SHT30;57282;52.514;13.458;2022-09-04T07:30:41;17.00;55.34
69770;SHT30;57282;52.514;13.458;2022-09-04T07:33:15;17.07;55.04
69770;SHT30;57282;52.514;13.458;2022-09-04T07:35:51;17.13;55.13
69770;SHT30;57282;52.514;13.458;2022-09-04T07:38:28;17.18;55.07
69770;SHT30;57282;52.514;13.458;2022-09-04T07:41:06;17.28;55.14
69770;SHT30;57282;52.514;13.458;2022-09-04T07:43:44;17.43;54.79
69770;SHT30;57282;52.514;13.458;2022-09-04T07:46:22;17.46;55.37
69770;SHT30;57282;52.514;13.458;2022-09-04T07:49:01;17.56;55.10
69770;SHT30;57282;52.514;13.458;2022-09-04T07:51:36;17.62;55.11
69770;SHT30;57282;52.514;13.458;2022-09-04T07:54:17;17.68;55.33
69770;SHT30;57282;52.514;13.458;2022-09-04T07:57:21;17.78;55.04
69770;SHT30;57282;52.514;13.458;2022-09-04T08:00:05;17.89;54.66
69770;SHT30;57282;52.514;13.458;2022-09-04T08:02:50;17.89;55.24
69770;SHT30;57282;52.514;13.458;2022-09-04T08:05:51;17.92;55.02
69770;SHT30;57282;52.514;13.458;2022-09-04T08:08:51;17.93;54.92
69770;SHT30;57282;52.514;13.458;2022-09-04T08:11:38;18.00;55.03
69770;SHT30;57282;52.514;13.458;2022-09-04T08:14:24;18.09;55.06
69770;SHT30;57282;52.514;13.458;2022-09-04T08:20:41;18.24;54.47
69770;SHT30;57282;52.514;13.458;2022-09-04T08:23:35;18.36;54.21
69770;SHT30;57282;52.514;13.458;2022-09-04T08:26:24;18.43;54.23
69770;SHT30;57282;52.514;13.458;2022-09-04T08:29:13;18.49;54.16
69770;SHT30;57282;52.514;13.458;2022-09-04T08:32:02;18.65;53.90
69770;SHT30;57282;52.514;13.458;2022-09-04T08:34:58;18.75;53.97
69770;SHT30;57282;52.514;13.458;2022-09-04T08:37:37;18.73;53.85
69770;SHT30;57282;52.514;13.458;2022-09-04T08:40:51;18.79;53.77
69770;SHT30;57282;52.514;13.458;2022-09-04T08:44:12;18.89;53.47
69770;SHT30;57282;52.514;13.458;2022-09-04T08:50:39;19.10;53.18
69770;SHT30;57282;52.514;13.458;2022-09-04T08:53:51;19.13;52.89
69770;SHT30;57282;52.514;13.458;2022-09-04T08:56:41;19.16;52.68
69770;SHT30;57282;52.514;13.458;2022-09-04T08:59:52;19.24;52.41
69770;SHT30;57282;52.514;13.458;2022-09-04T09:09:23;19.43;52.47
69770;SHT30;57282;52.514;13.458;2022-09-04T09:12:29;19.53;51.65
69770;SHT30;57282;52.514;13.458;2022-09-04T09:15:32;19.61;51.36
69770;SHT30;57282;52.514;13.458;2022-09-04T09:18:33;19.64;51.09
69770;SHT30;57282;52.514;13.458;2022-09-04T09:21:08;19.70;51.43
69770;SHT30;57282;52.514;13.458;2022-09-04T09:23:44;19.75;51.10
69770;SHT30;57282;52.514;13.458;2022-09-04T09:26:37;19.88;50.88
69770;SHT30;57282;52.514;13.458;2022-09-04T09:29:47;19.89;50.98
69770;SHT30;57282;52.514;13.458;2022-09-04T09:36:32;20.04;50.36
69770;SHT30;57282;52.514;13.458;2022-09-04T09:43:14;20.26;50.22
69770;SHT30;57282;52.514;13.458;2022-09-04T09:46:41;20.25;49.97
69770;SHT30;57282;52.514;13.458;2022-09-04T10:00:09;20.47;49.83
69770;SHT30;57282;52.514;13.458;2022-09-04T10:02:59;20.52;49.39
69770;SHT30;57282;52.514;13.458;2022-09-04T10:09:23;20.61;49.05
69770;SHT30;57282;52.514;13.458;2022-09-04T10:12:43;20.73;48.41
69770;SHT30;57282;52.514;13.458;2022-09-04T10:19:12;20.83;47.59
69770;SHT30;57282;52.514;13.458;2022-09-04T10:22:18;20.84;47.27
69770;SHT30;57282;52.514;13.458;2022-09-04T10:25:20;20.94;47.12
69770;SHT30;57282;52.514;13.458;2022-09-04T10:28:27;21.05;47.16
69770;SHT30;57282;52.514;13.458;2022-09-04T10:31:23;21.07;47.13
69770;SHT30;57282;52.514;13.458;2022-09-04T10:34:14;21.09;46.66
69770;SHT30;57282;52.514;13.458;2022-09-04T10:37:15;21.21;46.01
69770;SHT30;57282;52.514;13.458;2022-09-04T10:40:08;21.28;45.96
69770;SHT30;57282;52.514;13.458;2022-09-04T10:43:22;21.29;46.07
69770;SHT30;57282;52.514;13.458;2022-09-04T10:46:00;21.29;46.19
69770;SHT30;57282;52.514;13.458;2022-09-04T10:48:52;21.35;46.67
69770;SHT30;57282;52.514;13.458;2022-09-04T10:51:54;21.38;46.14
69770;SHT30;57282;52.514;13.458;2022-09-04T10:54:56;21.42;46.34
69770;SHT30;57282;52.514;13.458;2022-09-04T10:58:01;21.45;45.89
69770;SHT30;57282;52.514;13.458;2022-09-04T11:00:46;21.46;45.78
69770;SHT30;57282;52.514;13.458;2022-09-04T11:03:39;21.50;46.30
69770;SHT30;57282;52.514;13.458;2022-09-04T11:06:56;21.63;45.88
69770;SHT30;57282;52.514;13.458;2022-09-04T11:09:52;21.65;45.90
69770;SHT30;57282;52.514;13.458;2022-09-04T11:16:11;21.69;45.48
69770;SHT30;57282;52.514;13.458;2022-09-04T11:19:24;21.72;45.84
69770;SHT30;57282;52.514;13.458;2022-09-04T11:25:44;21.67;45.90
69770;SHT30;57282;52.514;13.458;2022-09-04T11:29:02;21.70;45.55
69770;SHT30;57282;52.514;13.458;2022-09-04T11:38:07;21.90;45.16
69770;SHT30;57282;52.514;13.458;2022-09-04T11:41:18;21.87;45.53
69770;SHT30;57282;52.514;13.458;2022-09-04T11:44:48;21.96;45.36
69770;SHT30;57282;52.514;13.458;2022-09-04T11:48:01;21.92;45.29
69770;SHT30;57282;52.514;13.458;2022-09-04T11:55:04;22.13;44.39
69770;SHT30;57282;52.514;13.458;2022-09-04T11:57:56;22.14;44.63
69770;SHT30;57282;52.514;13.458;2022-09-04T12:00:40;22.18;44.53
69770;SHT30;57282;52.514;13.458;2022-09-04T12:03:37;22.21;44.65
69770;SHT30;57282;52.514;13.458;2022-09-04T12:06:35;22.38;43.85
69770;SHT30;57282;52.514;13.458;2022-09-04T12:09:39;22.56;43.67
69770;SHT30;57282;52.514;13.458;2022-09-04T12:15:57;22.51;43.90
69770;SHT30;57282;52.514;13.458;2022-09-04T12:18:53;22.44;43.64
69770;SHT30;57282;52.514;13.458;2022-09-04T12:22:05;22.41;43.56
69770;SHT30;57282;52.514;13.458;2022-09-04T12:25:27;22.44;43.65
69770;SHT30;57282;52.514;13.458;2022-09-04T12:28:47;22.38;44.10
69770;SHT30;57282;52.514;13.458;2022-09-04T12:31:49;22.40;44.52
69770;SHT30;57282;52.514;13.458;2022-09-04T12:34:59;22.51;43.82
69770;SHT30;57282;52.514;13.458;2022-09-04T12:38:08;22.61;43.93
69770;SHT30;57282;52.514;13.458;2022-09-04T12:40:54;22.72;43.76
69770;SHT30;57282;52.514;13.458;2022-09-04T12:43:38;22.81;42.84
69770;SHT30;57282;52.514;13.458;2022-09-04T12:46:31;22.89;42.60
69770;SHT30;57282;52.514;13.458;2022-09-04T12:49:43;22.98;42.09
69770;SHT30;57282;52.514;13.458;2022-09-04T12:52:34;23.03;41.87
69770;SHT30;57282;52.514;13.458;2022-09-04T12:55:15;23.12;41.86
69770;SHT30;57282;52.514;13.458;2022-09-04T12:57:59;23.14;41.23
69770;SHT30;57282;52.514;13.458;2022-09-04T13:00:41;23.14;41.05
69770;SHT30;57282;52.514;13.458;2022-09-04T13:03:25;23.24;40.52
69770;SHT30;57282;52.514;13.458;2022-09-04T13:06:15;23.26;40.13
69770;SHT30;57282;52.514;13.458;2022-09-04T13:09:02;23.28;40.27
69770;SHT30;57282;52.514;13.458;2022-09-04T13:11:47;23.26;39.92
69770;SHT30;57282;52.514;13.458;2022-09-04T13:14:37;23.27;39.09
69770;SHT30;57282;52.514;13.458;2022-09-04T13:17:19;23.26;39.13
69770;SHT30;57282;52.514;13.458;2022-09-04T13:20:02;23.27;39.19
69770;SHT30;57282;52.514;13.458;2022-09-04T13:22:49;23.24;39.52
69770;SHT30;57282;52.514;13.458;2022-09-04T13:25:37;23.24;39.56
69770;SHT30;57282;52.514;13.458;2022-09-04T13:28:23;23.27;38.51
69770;SHT30;57282;52.514;13.458;2022-09-04T13:31:18;23.26;38.71
69770;SHT30;57282;52.514;13.458;2022-09-04T13:34:08;23.27;38.45
69770;SHT30;57282;52.514;13.458;2022-09-04T13:36:49;23.28;37.83
69770;SHT30;57282;52.514;13.458;2022-09-04T13:43:03;23.31;37.94
69770;SHT30;57282;52.514;13.458;2022-09-04T13:45:48;23.33;38.10
69770;SHT30;57282;52.514;13.458;2022-09-04T13:48:30;23.31;38.00
69770;SHT30;57282;52.514;13.458;2022-09-04T13:51:07;23.31;37.76
69770;SHT30;57282;52.514;13.458;2022-09-04T13:53:45;23.24;37.83
69770;SHT30;57282;52.514;13.458;2022-09-04T13:56:27;23.23;38.21
69770;SHT30;57282;52.514;13.458;2022-09-04T13:59:02;23.28;37.87
69770;SHT30;57282;52.514;13.458;2022-09-04T14:01:35;23.30;37.50
69770;SHT30;57282;52.514;13.458;2022-09-04T14:04:12;23.26;37.37
69770;SHT30;57282;52.514;13.458;2022-09-04T14:06:43;23.24;37.26
69770;SHT30;57282;52.514;13.458;2022-09-04T14:09:11;23.23;37.45
69770;SHT30;57282;52.514;13.458;2022-09-04T14:12:05;23.23;37.47
69770;SHT30;57282;52.514;13.458;2022-09-04T14:15:15;23.27;37.32
69770;SHT30;57282;52.514;13.458;2022-09-04T14:18:00;23.33;37.80
69770;SHT30;57282;52.514;13.458;2022-09-04T14:20:44;23.28;37.39
69770;SHT30;57282;52.514;13.458;2022-09-04T14:23:31;23.27;37.37
69770;SHT30;57282;52.514;13.458;2022-09-04T14:26:12;23.24;37.83
69770;SHT30;57282;52.514;13.458;2022-09-04T14:28:55;23.39;37.12
69770;SHT30;57282;52.514;13.458;2022-09-04T14:31:39;23.33;37.55
69770;SHT30;57282;52.514;13.458;2022-09-04T14:34:22;23.30;37.33
69770;SHT30;57282;52.514;13.458;2022-09-04T14:37:07;23.30;37.18
69770;SHT30;57282;52.514;13.458;2022-09-04T14:39:46;23.28;36.97
69770;SHT30;57282;52.514;13.458;2022-09-04T14:42:26;23.30;36.65
69770;SHT30;57282;52.514;13.458;2022-09-04T14:45:15;23.31;37.08
69770;SHT30;57282;52.514;13.458;2022-09-04T14:47:52;23.28;37.38
69770;SHT30;57282;52.514;13.458;2022-09-04T14:50:24;23.31;37.90
69770;SHT30;57282;52.514;13.458;2022-09-04T14:52:56;23.30;37.52
69770;SHT30;57282;52.514;13.458;2022-09-04T14:55:29;23.30;37.65
69770;SHT30;57282;52.514;13.458;2022-09-04T14:58:02;23.26;36.91
69770;SHT30;57282;52.514;13.458;2022-09-04T15:00:54;23.30;37.69
69770;SHT30;57282;52.514;13.458;2022-09-04T15:03:30;23.31;37.02
69770;SHT30;57282;52.514;13.458;2022-09-04T15:06:06;23.31;36.92
69770;SHT30;57282;52.514;13.458;2022-09-04T15:08:41;23.31;36.81
69770;SHT30;57282;52.514;13.458;2022-09-04T15:11:24;23.31;37.12
69770;SHT30;57282;52.514;13.458;2022-09-04T15:13:57;23.28;37.15
69770;SHT30;57282;52.514;13.458;2022-09-04T15:16:43;23.28;37.24
69770;SHT30;57282;52.514;13.458;2022-09-04T15:19:24;23.28;37.13
69770;SHT30;57282;52.514;13.458;2022-09-04T15:22:03;23.26;37.06
69770;SHT30;57282;52.514;13.458;2022-09-04T15:24:38;23.24;37.23
69770;SHT30;57282;52.514;13.458;2022-09-04T15:27:18;23.20;37.41
69770;SHT30;57282;52.514;13.458;2022-09-04T15:30:03;23.21;37.51
69770;SHT30;57282;52.514;13.458;2022-09-04T15:32:37;23.23;37.50
69770;SHT30;57282;52.514;13.458;2022-09-04T15:35:13;23.20;37.60
69770;SHT30;57282;52.514;13.458;2022-09-04T15:37:43;23.20;37.81
69770;SHT30;57282;52.514;13.458;2022-09-04T15:40:19;23.17;37.74
69770;SHT30;57282;52.514;13.458;2022-09-04T15:42:59;23.14;37.50
69770;SHT30;57282;52.514;13.458;2022-09-04T15:45:40;23.12;38.27
69770;SHT30;57282;52.514;13.458;2022-09-04T15:48:26;23.14;37.37
69770;SHT30;57282;52.514;13.458;2022-09-04T15:51:16;23.13;37.65
69770;SHT30;57282;52.514;13.458;2022-09-04T15:54:05;23.12;37.10
69770;SHT30;57282;52.514;13.458;2022-09-04T15:56:44;23.09;37.21
69770;SHT30;57282;52.514;13.458;2022-09-04T15:59:23;23.06;36.94
69770;SHT30;57282;52.514;13.458;2022-09-04T16:02:01;23.09;37.21
69770;SHT30;57282;52.514;13.458;2022-09-04T16:04:43;23.03;37.08
69770;SHT30;57282;52.514;13.458;2022-09-04T16:07:27;23.03;37.40
69770;SHT30;57282;52.514;13.458;2022-09-04T16:10:10;22.99;37.96
69770;SHT30;57282;52.514;13.458;2022-09-04T16:12:48;22.92;37.99
69770;SHT30;57282;52.514;13.458;2022-09-04T16:15:21;22.93;37.89
69770;SHT30;57282;52.514;13.458;2022-09-04T16:17:54;22.92;38.03
69770;SHT30;57282;52.514;13.458;2022-09-04T16:20:36;22.99;37.86
69770;SHT30;57282;52.514;13.458;2022-09-04T16:23:12;22.95;38.03
69770;SHT30;57282;52.514;13.458;2022-09-04T16:25:45;22.89;38.33
69770;SHT30;57282;52.514;13.458;2022-09-04T16:28:21;22.85;38.65
69770;SHT30;57282;52.514;13.458;2022-09-04T16:30:55;22.83;38.88
69770;SHT30;57282;52.514;13.458;2022-09-04T16:33:29;22.81;38.94
69770;SHT30;57282;52.514;13.458;2022-09-04T16:36:04;22.79;38.55
69770;SHT30;57282;52.514;13.458;2022-09-04T16:38:43;22.77;38.54
69770;SHT30;57282;52.514;13.458;2022-09-04T16:41:18;22.76;38.65
69770;SHT30;57282;52.514;13.458;2022-09-04T16:44:14;22.76;38.76
69770;SHT30;57282;52.514;13.458;2022-09-04T16:46:48;22.71;38.82
69770;SHT30;57282;52.514;13.458;2022-09-04T16:49:30;22.72;39.28
69770;SHT30;57282;52.514;13.458;2022-09-04T16:52:18;22.73;39.08
69770;SHT30;57282;52.514;13.458;2022-09-04T16:55:06;22.71;39.22
69770;SHT30;57282;52.514;13.458;2022-09-04T16:57:40;22.68;39.77
69770;SHT30;57282;52.514;13.458;2022-09-04T17:00:14;22.65;39.36
69770;SHT30;57282;52.514;13.458;2022-09-04T17:02:44;22.65;39.73
69770;SHT30;57282;52.514;13.458;2022-09-04T17:05:22;22.59;39.98
69770;SHT30;57282;52.514;13.458;2022-09-04T17:08:11;22.55;39.91
69770;SHT30;57282;52.514;13.458;2022-09-04T17:10:47;22.55;39.93
69770;SHT30;57282;52.514;13.458;2022-09-04T17:13:28;22.52;40.10
69770;SHT30;57282;52.514;13.458;2022-09-04T17:16:05;22.51;40.20
69770;SHT30;57282;52.514;13.458;2022-09-04T17:18:35;22.51;40.07
69770;SHT30;57282;52.514;13.458;2022-09-04T17:21:17;22.48;40.18
69770;SHT30;57282;52.514;13.458;2022-09-04T17:24:12;22.45;40.09
69770;SHT30;57282;52.514;13.458;2022-09-04T17:26:52;22.41;40.13
69770;SHT30;57282;52.514;13.458;2022-09-04T17:29:25;22.40;40.49
69770;SHT30;57282;52.514;13.458;2022-09-04T17:32:00;22.37;40.40
69770;SHT30;57282;52.514;13.458;2022-09-04T17:34:47;22.34;40.91
69770;SHT30;57282;52.514;13.458;2022-09-04T17:37:24;22.30;40.93
69770;SHT30;57282;52.514;13.458;2022-09-04T17:40:03;22.31;40.74
69770;SHT30;57282;52.514;13.458;2022-09-04T17:42:41;22.27;41.11
69770;SHT30;57282;52.514;13.458;2022-09-04T17:45:23;22.28;40.65
69770;SHT30;57282;52.514;13.458;2022-09-04T17:48:12;22.21;40.92
69770;SHT30;57282;52.514;13.458;2022-09-04T17:50:49;22.20;41.63
69770;SHT30;57282;52.514;13.458;2022-09-04T17:53:23;22.18;41.59
69770;SHT30;57282;52.514;13.458;2022-09-04T17:55:57;22.18;41.15
69770;SHT30;57282;52.514;13.458;2022-09-04T17:58:34;22.13;41.03
69770;SHT30;57282;52.514;13.458;2022-09-04T18:01:09;22.10;41.32
69770;SHT30;57282;52.514;13.458;2022-09-04T18:03:52;22.06;41.50
69770;SHT30;57282;52.514;13.458;2022-09-04T18:06:36;22.03;41.63
69770;SHT30;57282;52.514;13.458;2022-09-04T18:09:11;21.98;41.98
69770;SHT30;57282;52.514;13.458;2022-09-04T18:11:49;21.97;41.97
69770;SHT30;57282;52.514;13.458;2022-09-04T18:14:24;21.93;42.22
69770;SHT30;57282;52.514;13.458;2022-09-04T18:17:13;21.92;42.47
69770;SHT30;57282;52.514;13.458;2022-09-04T18:19:47;21.87;42.28
69770;SHT30;57282;52.514;13.458;2022-09-04T18:22:58;21.85;42.29
69770;SHT30;57282;52.514;13.458;2022-09-04T18:25:39;21.83;42.55
69770;SHT30;57282;52.514;13.458;2022-09-04T18:28:14;21.82;42.80